Time;durP1;ratioP1;P1;durP2;ratioP2;P2;SDS_P1;SDS_P2;PMS_P1;PMS_P2;Temp;Humidity;BMP_temperature;BMP_pressure;BME280_temperature;BME280_humidity;BME280_pressure;Samples;Min_cycle;Max_cycle;Signal;HPM_P1;HPM_P2
2021/03/17 00:01:16;;;;;;;6.63;4.03;;;;;;;1.86;79.49;95602.09;5077171;28;20317;-88
2021/03/17 00:03:41;;;;;;;5.85;4.40;;;;;;;1.94;79.63;95619.53;5077124;28;20427;-88
2021/03/17 00:06:07;;;;;;;6.50;4.32;;;;;;;1.81;80.58;95627.47;5077260;28;20039;-89
2021/03/17 00:08:33;;;;;;;8.63;4.43;;;;;;;1.82;80.88;95615.59;5078074;28;20025;-88
2021/03/17 00:10:59;;;;;;;4.97;3.85;;;;;;;2.22;80.40;95687.00;5077194;28;20420;-88
2021/03/17 00:13:28;;;;;;;5.05;4.10;;;;;;;1.86;79.50;95626.19;5076837;28;20074;-89
2021/03/17 00:15:57;;;;;;;6.30;4.30;;;;;;;1.89;80.86;95641.44;5076906;28;20081;-88
2021/03/17 00:18:23;;;;;;;6.50;4.20;;;;;;;2.14;81.37;95678.38;5077101;28;20416;-88
2021/03/17 00:20:49;;;;;;;5.40;4.32;;;;;;;1.79;81.96;95640.50;5077838;28;20036;-88
2021/03/17 00:23:14;;;;;;;7.68;4.35;;;;;;;2.10;81.51;95681.13;5076699;28;20051;-89
2021/03/17 00:25:41;;;;;;;8.18;4.38;;;;;;;1.67;81.83;95621.69;5076542;28;20024;-88
2021/03/17 00:28:07;;;;;;;6.13;4.57;;;;;;;2.02;82.29;95682.47;5075705;28;20383;-88
2021/03/17 00:30:35;;;;;;;6.90;4.90;;;;;;;1.57;82.40;95618.81;5093357;28;20038;-88
2021/03/17 00:33:03;;;;;;;8.38;5.90;;;;;;;1.48;82.58;95604.47;5076190;28;20024;-88
2021/03/17 00:35:29;;;;;;;7.90;5.63;;;;;;;1.91;83.17;95678.50;5077483;28;20027;-88
2021/03/17 00:37:55;;;;;;;7.82;5.53;;;;;;;2.00;82.55;95671.41;5077587;28;20024;-88
2021/03/17 00:40:21;;;;;;;7.75;5.28;;;;;;;1.38;81.98;95597.44;5077343;28;20028;-88
2021/03/17 00:42:47;;;;;;;7.97;5.72;;;;;;;1.63;82.32;95634.38;5076432;28;20326;-89
2021/03/17 00:45:13;;;;;;;7.78;5.47;;;;;;;1.89;82.31;95675.50;5077357;28;20024;-88
2021/03/17 00:47:39;;;;;;;9.80;5.65;;;;;;;1.30;81.98;95588.81;5093039;28;20029;-89
2021/03/17 00:50:08;;;;;;;8.55;6.22;;;;;;;1.95;82.34;95679.19;5056312;28;20025;-88
2021/03/17 00:52:33;;;;;;;8.40;6.03;;;;;;;1.93;82.65;95655.53;5056442;28;20469;-88
2021/03/17 00:54:58;;;;;;;10.05;6.35;;;;;;;1.74;82.26;95630.28;5057710;28;20082;-88
2021/03/17 00:57:24;;;;;;;10.52;6.38;;;;;;;1.66;82.67;95630.88;5056204;28;20359;-88
2021/03/17 00:59:49;;;;;;;9.50;6.57;;;;;;;1.83;81.84;95659.94;5056175;28;20028;-88
2021/03/17 01:02:15;;;;;;;10.40;6.90;;;;;;;1.50;83.25;95634.28;5056136;28;20324;-88
2021/03/17 01:04:55;;;;;;;9.38;6.43;;;;;;;1.64;82.59;95642.00;5072621;28;20306;-88
2021/03/17 01:07:20;;;;;;;10.07;6.78;;;;;;;1.75;82.40;95644.44;5076283;28;20036;-88
2021/03/17 01:09:46;;;;;;;11.27;7.57;;;;;;;1.91;82.44;95649.06;5076161;28;20123;-88
2021/03/17 01:12:12;;;;;;;13.30;7.68;;;;;;;1.95;83.37;95655.09;5076070;28;20024;-89
2021/03/17 01:14:39;;;;;;;11.68;7.72;;;;;;;1.62;82.35;95582.00;5075996;28;20092;-88
2021/03/17 01:17:05;;;;;;;13.20;8.05;;;;;;;2.02;82.26;95652.25;5076203;28;20027;-89
2021/03/17 01:19:33;;;;;;;13.00;9.07;;;;;;;2.02;81.13;95658.34;5093028;28;20297;-89
2021/03/17 01:21:59;;;;;;;14.57;9.70;;;;;;;1.71;80.50;95590.22;5093038;28;20032;-88
2021/03/17 01:24:24;;;;;;;10.98;8.52;;;;;;;2.06;80.11;95618.84;5076064;28;20025;-89
2021/03/17 01:26:50;;;;;;;14.23;9.60;;;;;;;1.98;79.50;95619.44;5076001;28;20359;-88
2021/03/17 01:29:15;;;;;;;14.10;9.38;;;;;;;2.43;78.39;95650.91;5076963;28;20046;-89
2021/03/17 01:31:41;;;;;;;13.10;9.65;;;;;;;1.99;78.02;95584.19;5075886;28;20314;-88
2021/03/17 01:34:07;;;;;;;15.23;10.25;;;;;;;2.12;77.47;95596.91;5076079;28;20029;-89
2021/03/17 01:36:32;;;;;;;14.25;10.65;;;;;;;2.10;77.98;95592.72;5075935;28;20028;-88
2021/03/17 01:38:57;;;;;;;15.13;10.82;;;;;;;1.73;77.93;95527.03;5070721;28;20086;-88
2021/03/17 01:41:23;;;;;;;14.10;11.05;;;;;;;2.29;78.52;95619.81;5059809;28;20064;-89
2021/03/17 01:43:48;;;;;;;14.10;10.73;;;;;;;2.34;77.62;95625.47;5059777;28;20106;-88
2021/03/17 01:46:14;;;;;;;14.43;10.75;;;;;;;2.25;78.06;95603.09;5059832;28;20025;-88
2021/03/17 01:48:39;;;;;;;16.67;10.45;;;;;;;1.81;77.47;95555.16;5060413;28;20405;-88
2021/03/17 01:51:05;;;;;;;15.20;10.90;;;;;;;1.93;77.24;95551.06;5076254;28;20032;-88
2021/03/17 01:53:33;;;;;;;12.90;10.38;;;;;;;2.24;76.18;95605.03;5059486;28;20431;-88
2021/03/17 01:55:59;;;;;;;15.43;10.85;;;;;;;2.19;77.03;95600.19;5059480;28;20036;-88
2021/03/17 01:58:26;;;;;;;16.35;11.23;;;;;;;2.66;75.19;95652.63;5059699;28;20021;-88
2021/03/17 02:00:52;;;;;;;14.60;10.52;;;;;;;2.66;74.70;95647.25;5076182;28;20094;-88
2021/03/17 02:03:18;;;;;;;14.27;10.82;;;;;;;2.07;74.72;95579.41;5076104;28;20111;-88
2021/03/17 02:05:45;;;;;;;13.25;10.23;;;;;;;2.14;75.33;95581.19;5060495;28;20029;-88
2021/03/17 02:08:15;;;;;;;13.75;10.23;;;;;;;2.24;75.34;95610.38;5071131;28;20162;-87
2021/03/17 02:10:41;;;;;;;13.13;10.95;;;;;;;1.93;76.25;95564.44;5079349;28;20431;-88
2021/03/17 02:13:12;;;;;;;15.38;11.30;;;;;;;2.40;76.07;95643.69;5079255;28;20024;-88
2021/03/17 02:15:53;;;;;;;13.18;10.50;;;;;;;2.31;78.27;95636.25;5080174;28;20051;-88
2021/03/17 02:18:37;;;;;;;14.52;10.60;;;;;;;2.28;78.31;95634.41;5079216;28;20028;-88
2021/03/17 02:21:20;;;;;;;13.95;10.40;;;;;;;2.34;77.49;95638.09;5079076;28;20032;-88
2021/03/17 02:24:11;;;;;;;13.23;10.45;;;;;;;2.31;77.81;95639.69;5079072;28;20032;-89
2021/03/17 02:26:55;;;;;;;15.15;11.07;;;;;;;2.43;76.21;95637.50;5078906;28;20028;-88
2021/03/17 02:29:39;;;;;;;14.10;10.45;;;;;;;2.52;76.69;95645.69;5078994;28;20096;-89
2021/03/17 02:32:27;;;;;;;14.95;11.27;;;;;;;2.43;74.97;95616.06;5078973;28;20035;-88
2021/03/17 02:34:57;;;;;;;15.52;11.60;;;;;;;2.29;76.48;95604.53;5079793;28;20359;-89
2021/03/17 02:37:24;;;;;;;15.18;11.70;;;;;;;2.30;77.65;95616.00;5079723;28;20029;-88
2021/03/17 02:40:06;;;;;;;17.55;12.35;;;;;;;2.23;78.06;95613.47;5078737;28;20439;-88
2021/03/17 02:42:55;;;;;;;14.73;11.27;;;;;;;2.29;77.86;95609.88;5080273;28;20409;-88
2021/03/17 02:45:31;;;;;;;17.08;12.38;;;;;;;2.24;78.67;95615.00;5095617;28;20032;-88
2021/03/17 02:48:21;;;;;;;16.65;12.27;;;;;;;2.34;79.16;95646.91;5078467;28;20036;-89
2021/03/17 02:50:48;;;;;;;19.02;12.73;;;;;;;2.40;79.28;95638.31;5078623;28;20085;-88
2021/03/17 02:53:17;;;;;;;18.77;12.02;;;;;;;1.87;79.83;95595.59;5078359;28;20391;-90
2021/03/17 02:55:50;;;;;;;16.50;12.13;;;;;;;1.64;80.72;95579.66;5078269;28;20038;-88
2021/03/17 02:58:17;;;;;;;16.08;11.75;;;;;;;1.72;81.65;95611.22;5078448;28;20021;-89
2021/03/17 03:00:43;;;;;;;19.08;12.90;;;;;;;1.54;81.95;95578.72;5078471;28;20036;-89
2021/03/17 03:03:11;;;;;;;19.35;12.75;;;;;;;1.57;82.42;95588.63;5078279;28;20425;-89
2021/03/17 03:05:38;;;;;;;19.67;12.80;;;;;;;1.35;83.12;95574.94;5078301;28;20049;-89
2021/03/17 03:08:07;;;;;;;16.83;12.93;;;;;;;1.39;83.39;95577.56;5078225;28;20112;-89
2021/03/17 03:10:33;;;;;;;18.65;12.38;;;;;;;1.31;82.78;95567.00;5078123;28;20119;-89
2021/03/17 03:13:00;;;;;;;18.83;13.00;;;;;;;1.17;81.97;95564.63;5078186;28;20032;-89
2021/03/17 03:16:01;;;;;;;16.92;12.20;;;;;;;1.88;82.60;95656.00;5078115;28;20027;-88
2021/03/17 03:18:28;;;;;;;17.77;12.25;;;;;;;1.55;83.39;95605.09;5079016;28;20035;-89
2021/03/17 03:20:55;;;;;;;17.73;13.07;;;;;;;1.66;82.07;95633.56;5078085;28;20085;-89
2021/03/17 03:23:25;;;;;;;19.08;12.82;;;;;;;1.05;83.09;95549.22;5078922;28;20040;-89
2021/03/17 03:25:51;;;;;;;21.38;14.18;;;;;;;1.61;83.30;95642.09;5077963;28;20021;-90
2021/03/17 03:28:20;;;;;;;17.52;13.15;;;;;;;1.33;83.09;95581.88;5077813;28;20028;-89
2021/03/17 03:30:49;;;;;;;18.65;13.27;;;;;;;1.74;82.83;95650.97;5078712;28;20031;-89
2021/03/17 03:33:16;;;;;;;19.20;13.30;;;;;;;1.77;83.73;95653.56;5077749;28;20020;-89
2021/03/17 03:35:42;;;;;;;18.02;12.60;;;;;;;1.66;82.39;95646.94;5077659;28;20029;-88
2021/03/17 03:38:11;;;;;;;16.90;12.57;;;;;;;1.31;82.79;95590.31;5077583;28;20323;-89
2021/03/17 03:40:38;;;;;;;17.23;12.88;;;;;;;1.31;82.55;95601.03;5077540;28;20297;-89
2021/03/17 03:43:06;;;;;;;16.25;11.95;;;;;;;1.34;81.98;95591.44;5077477;28;20029;-90
2021/03/17 03:45:33;;;;;;;16.45;12.13;;;;;;;1.72;82.66;95650.63;5077456;28;20028;-89
2021/03/17 03:47:59;;;;;;;16.08;11.70;;;;;;;1.84;82.09;95641.94;5076978;28;20043;-89
2021/03/17 03:50:26;;;;;;;17.52;12.52;;;;;;;0.99;82.42;95532.91;5077372;28;20320;-90
2021/03/17 03:53:22;;;;;;;18.63;11.80;;;;;;;1.46;83.41;95596.13;5078176;28;20055;-89
2021/03/17 03:56:06;;;;;;;18.90;12.27;;;;;;;1.41;83.27;95588.59;5067886;28;20359;-89
2021/03/17 03:58:31;;;;;;;16.98;12.18;;;;;;;1.77;84.03;95661.59;5077261;28;20427;-90
2021/03/17 04:01:07;;;;;;;20.15;12.68;;;;;;;1.48;83.55;95620.53;5078198;28;20028;-89
2021/03/17 04:03:36;;;;;;;15.43;10.77;;;;;;;1.56;82.96;95624.59;5077286;28;20020;-89
2021/03/17 04:06:03;;;;;;;15.70;10.25;;;;;;;1.52;83.02;95616.63;5078132;28;20048;-90
2021/03/17 04:08:31;;;;;;;16.52;11.50;;;;;;;1.35;83.07;95595.59;5077021;28;20039;-90
2021/03/17 04:10:59;;;;;;;15.27;11.38;;;;;;;1.14;83.31;95592.22;5077146;28;20024;-89
2021/03/17 04:13:27;;;;;;;14.23;11.20;;;;;;;1.62;83.75;95657.72;5076842;28;20052;-89
2021/03/17 04:15:57;;;;;;;16.02;11.07;;;;;;;1.33;83.63;95612.06;5076947;28;20017;-89
2021/03/17 04:18:27;;;;;;;15.13;10.63;;;;;;;1.27;83.68;95598.41;5064219;28;20032;-90
2021/03/17 04:20:56;;;;;;;14.73;10.50;;;;;;;1.71;83.31;95657.16;5073517;28;20259;-90
2021/03/17 04:23:24;;;;;;;13.18;9.73;;;;;;;1.65;83.67;95654.22;5057590;28;20075;-89
2021/03/17 04:25:53;;;;;;;12.02;9.35;;;;;;;1.65;83.12;95651.56;5073174;28;20021;-90
2021/03/17 04:28:22;;;;;;;15.98;10.57;;;;;;;1.66;83.33;95655.72;5073282;28;20389;-89
2021/03/17 04:30:48;;;;;;;18.08;11.52;;;;;;;1.66;84.90;95652.31;5073305;28;20029;-89
2021/03/17 04:33:15;;;;;;;19.30;11.80;;;;;;;1.59;84.64;95637.13;5073432;28;20033;-89
2021/03/17 04:35:44;;;;;;;16.83;10.82;;;;;;;1.19;84.15;95582.94;5073356;28;20112;-89
2021/03/17 04:38:12;;;;;;;17.60;10.90;;;;;;;1.23;84.23;95580.94;5073171;28;20017;-89
2021/03/17 04:40:39;;;;;;;14.98;10.90;;;;;;;1.79;83.47;95658.50;5076548;28;20557;-89
2021/03/17 04:43:06;;;;;;;17.85;10.75;;;;;;;1.80;84.19;95658.06;5076508;28;20016;-89
2021/03/17 04:45:33;;;;;;;14.75;9.93;;;;;;;1.27;83.30;95597.66;5076544;28;20028;-89
2021/03/17 04:47:59;;;;;;;13.30;9.43;;;;;;;1.47;82.83;95621.72;5076376;28;20039;-88
2021/03/17 04:50:26;;;;;;;14.35;9.20;;;;;;;1.34;83.13;95597.53;5076261;28;20035;-88
2021/03/17 04:52:52;;;;;;;13.25;9.60;;;;;;;1.56;83.39;95627.25;5073548;28;20071;-88
2021/03/17 04:55:18;;;;;;;16.10;9.93;;;;;;;1.82;83.11;95641.63;5057154;28;20021;-88
2021/03/17 04:57:46;;;;;;;16.70;11.13;;;;;;;1.90;81.63;95653.66;5072898;28;20108;-89
2021/03/17 05:00:20;;;;;;;21.55;14.15;;;;;;;1.54;81.08;95619.63;5057199;28;20294;-89
2021/03/17 05:02:54;;;;;;;22.83;13.82;;;;;;;1.42;81.34;95614.19;5073716;28;20032;-88
2021/03/17 05:05:20;;;;;;;29.13;18.48;;;;;;;1.39;82.18;95605.06;5076341;28;20093;-88
2021/03/17 05:07:47;;;;;;;26.98;17.02;;;;;;;1.55;82.39;95629.19;5093042;28;20024;-88
2021/03/17 05:10:14;;;;;;;33.70;20.60;;;;;;;1.62;82.02;95627.53;5076219;28;20059;-88
2021/03/17 05:12:40;;;;;;;23.75;16.45;;;;;;;1.70;82.72;95629.63;5076056;28;20028;-89
2021/03/17 05:15:07;;;;;;;44.20;24.10;;;;;;;1.74;82.98;95627.63;5082432;28;20024;-89
2021/03/17 05:17:34;;;;;;;33.00;18.33;;;;;;;1.63;81.84;95610.28;5082824;28;20025;-90
2021/03/17 05:20:01;;;;;;;23.95;14.95;;;;;;;1.30;83.40;95586.91;5082880;28;20028;-92
2021/03/17 05:22:28;;;;;;;23.13;15.52;;;;;;;1.86;83.86;95668.31;5082815;28;20404;-91
2021/03/17 05:24:54;;;;;;;21.92;14.07;;;;;;;1.29;83.23;95569.34;5099724;28;20355;-91
2021/03/17 05:27:22;;;;;;;21.63;15.07;;;;;;;1.42;80.55;95582.06;5082845;28;20028;-92
2021/03/17 05:29:48;;;;;;;19.75;14.98;;;;;;;1.77;80.46;95632.16;5082763;28;20485;-91
2021/03/17 05:32:15;;;;;;;17.90;14.95;;;;;;;1.84;100.00;95625.88;5082753;28;20024;-91
2021/03/17 05:35:01;;;;;;;18.30;13.82;;;;;;;2.00;100.00;68426.72;5082720;28;20495;-92
2021/03/17 05:37:27;;;;;;;18.05;13.60;;;;;;;1.66;78.33;95590.72;5099650;28;20024;-92
2021/03/17 05:39:54;;;;;;;20.50;14.75;;;;;;;2.17;79.51;95664.13;5082830;28;20293;-93
2021/03/17 05:42:21;;;;;;;23.60;16.05;;;;;;;1.66;80.17;95588.78;5082692;28;20024;-90
2021/03/17 05:44:46;;;;;;;26.83;16.88;;;;;;;1.94;80.92;95640.19;5082836;28;20028;-93
2021/03/17 05:47:12;;;;;;;22.17;16.20;;;;;;;1.74;81.46;95598.16;5085728;28;20035;-91
2021/03/17 05:49:38;;;;;;;22.40;15.40;;;;;;;1.50;81.67;95556.66;5084852;28;20558;-92
2021/03/17 05:52:08;;;;;;;24.17;16.25;;;;;;;2.26;80.71;95667.00;5082410;28;20040;-90
2021/03/17 05:54:36;;;;;;;24.35;16.45;;;;;;;1.98;81.72;95651.59;5086541;28;20102;-93
2021/03/17 05:57:02;;;;;;;22.85;15.65;;;;;;;1.74;80.91;95624.19;5070001;28;20024;-91
2021/03/17 05:59:30;;;;;;;22.38;15.52;;;;;;;2.19;80.80;95677.13;5082706;28;20028;-92
2021/03/17 06:01:56;;;;;;;22.55;15.82;;;;;;;1.91;81.94;95636.41;5082480;28;20035;-95
2021/03/17 06:04:28;;;;;;;25.17;16.05;;;;;;;1.76;81.24;95617.25;5083107;28;20031;-94
2021/03/17 06:06:58;;;;;;;23.67;16.27;;;;;;;1.73;79.77;95630.72;5082557;28;20079;-93
2021/03/17 06:09:26;;;;;;;23.35;16.85;;;;;;;1.86;81.11;95639.59;5099485;28;20037;-93
2021/03/17 06:11:52;;;;;;;23.67;16.88;;;;;;;2.15;81.06;95681.81;5099291;28;20032;-92
2021/03/17 06:14:24;;;;;;;29.45;19.95;;;;;;;1.65;81.27;95614.06;5082544;28;20111;-94
2021/03/17 06:16:57;;;;;;;26.58;18.23;;;;;;;1.60;81.34;95592.38;5082785;28;20036;-91
2021/03/17 06:19:25;;;;;;;22.83;16.05;;;;;;;1.68;79.83;95599.84;5099678;28;20061;-92
2021/03/17 06:21:52;;;;;;;23.02;16.83;;;;;;;1.87;78.88;95637.69;5108054;28;20047;-91
2021/03/17 06:24:18;;;;;;;18.42;14.55;;;;;;;1.96;79.89;95633.22;5119520;28;20028;-94
2021/03/17 06:26:46;;;;;;;24.05;16.55;;;;;;;1.96;79.89;95633.22;5097198;28;20038;-92
2021/03/17 06:29:11;;;;;;;25.33;17.58;;;;;;;2.04;78.88;95639.94;5079498;28;20420;-90
2021/03/17 06:31:37;;;;;;;26.00;16.23;;;;;;;1.95;80.71;95642.44;5078923;28;20123;-90
2021/03/17 06:34:02;;;;;;;21.67;14.40;;;;;;;1.66;78.75;95588.78;5095979;28;20048;-90
2021/03/17 06:36:28;;;;;;;19.90;14.57;;;;;;;1.87;79.02;95592.16;5078792;28;20028;-91
2021/03/17 06:39:08;;;;;;;23.92;15.55;;;;;;;2.45;79.53;95696.78;5078865;28;20027;-91
2021/03/17 06:41:52;;;;;;;20.83;14.30;;;;;;;2.40;79.31;95686.56;5080223;28;20035;-92
2021/03/17 06:44:23;;;;;;;21.65;15.13;;;;;;;2.22;78.83;95639.53;5077419;28;20058;-91
2021/03/17 06:47:19;;;;;;;21.20;13.90;;;;;;;2.59;79.08;95702.56;5079553;28;20028;-89
2021/03/17 06:49:51;;;;;;;19.02;12.63;;;;;;;2.59;79.08;95702.56;5079239;28;20409;-92
2021/03/17 06:52:36;;;;;;;24.08;15.43;;;;;;;2.59;79.08;95702.56;5096631;28;20044;-92
2021/03/17 06:55:13;;;;;;;24.58;16.25;;;;;;;2.35;77.78;95655.69;5078928;28;20028;-94
2021/03/17 06:57:51;;;;;;;24.00;16.48;;;;;;;2.22;78.83;95647.56;5066331;28;20020;-93
2021/03/17 07:00:32;;;;;;;22.73;15.43;;;;;;;2.45;79.42;95694.91;5074418;28;20075;-91
2021/03/17 07:03:04;;;;;;;20.83;14.90;;;;;;;2.60;78.05;95704.06;5088156;28;20404;-92
2021/03/17 07:05:43;;;;;;;20.27;14.68;;;;;;;2.60;78.05;95704.06;5098639;28;20032;-91
2021/03/17 07:08:14;;;;;;;22.90;15.27;;;;;;;2.29;78.75;95657.34;5115567;28;20020;-90
2021/03/17 07:10:42;;;;;;;22.27;15.55;;;;;;;2.69;78.47;95700.81;5098608;28;20035;-90
2021/03/17 07:13:10;;;;;;;23.38;15.02;;;;;;;2.83;77.91;95715.81;5095190;28;20112;-87
2021/03/17 07:15:41;;;;;;;17.42;12.82;;;;;;;2.83;77.91;95715.81;5099205;28;20027;-86
2021/03/17 07:18:23;;;;;;;18.98;13.25;;;;;;;2.83;77.91;95715.81;5086687;28;20090;-83
2021/03/17 07:20:54;;;;;;;19.88;14.38;;;;;;;2.43;100.00;86719.59;5076673;28;20025;-83
2021/03/17 07:23:24;;;;;;;22.20;13.85;;;;;;;2.43;75.88;95666.97;5093480;28;20043;-85
2021/03/17 07:26:12;;;;;;;18.17;13.55;;;;;;;2.43;75.88;95666.97;5077211;28;20481;-85
2021/03/17 07:28:47;;;;;;;19.35;13.52;;;;;;;2.75;76.32;95712.53;5077222;28;20090;-86
2021/03/17 07:31:25;;;;;;;22.95;14.13;;;;;;;2.54;76.45;95668.22;5076744;28;20052;-85
2021/03/17 07:33:52;;;;;;;23.20;14.30;;;;;;;2.66;77.80;95685.53;5076962;28;20037;-85
2021/03/17 07:36:36;;;;;;;17.35;13.38;;;;;;;2.80;75.06;95714.69;5076764;28;20024;-85
2021/03/17 07:39:11;;;;;;;18.40;13.48;;;;;;;2.48;100.00;95677.19;5077070;28;20039;-85
2021/03/17 07:41:38;;;;;;;20.48;14.13;;;;;;;2.85;76.97;95730.28;5077788;28;20028;-86
2021/03/17 07:44:07;;;;;;;20.52;14.77;;;;;;;2.72;76.60;95724.13;5073203;28;20029;-87
2021/03/17 07:46:35;;;;;;;18.48;13.10;;;;;;;2.61;77.47;95718.25;5057029;28;20298;-86
2021/03/17 07:49:01;;;;;;;16.17;11.77;;;;;;;2.54;77.41;95680.88;5071895;28;20290;-87
2021/03/17 07:51:28;;;;;;;16.63;12.07;;;;;;;2.54;75.95;95688.91;5057849;28;20446;-87
2021/03/17 07:53:56;;;;;;;16.15;11.95;;;;;;;2.54;75.95;95688.91;5076939;28;20035;-87
2021/03/17 07:56:24;;;;;;;14.77;11.45;;;;;;;2.78;75.96;95745.81;5078176;28;20038;-88
2021/03/17 07:58:51;;;;;;;16.55;12.48;;;;;;;2.53;77.93;95736.44;5084802;28;20023;-86
2021/03/17 08:01:17;;;;;;;18.20;12.75;;;;;;;2.25;78.69;95673.53;5076630;28;20032;-87
2021/03/17 08:03:45;;;;;;;21.25;12.77;;;;;;;2.82;76.71;95738.41;5076520;28;20111;-86
2021/03/17 08:06:13;;;;;;;21.45;14.10;;;;;;;2.14;78.16;95656.19;5076538;28;20107;-86
2021/03/17 08:08:41;;;;;;;19.25;13.52;;;;;;;2.26;78.20;95669.69;5076403;28;20055;-86
2021/03/17 08:11:06;;;;;;;19.67;13.95;;;;;;;2.81;77.61;95721.56;5076541;28;20115;-86
2021/03/17 08:13:34;;;;;;;23.52;14.00;;;;;;;2.70;76.78;95702.31;5076486;28;20115;-86
2021/03/17 08:16:00;;;;;;;21.00;14.35;;;;;;;2.56;75.67;95667.81;5081092;28;20103;-85
2021/03/17 08:18:31;;;;;;;22.38;14.73;;;;;;;3.00;75.61;95740.66;5088843;28;20063;-86
2021/03/17 08:20:57;;;;;;;23.92;15.85;;;;;;;2.50;72.49;95683.63;5076361;28;20067;-86
2021/03/17 08:23:40;;;;;;;23.23;16.73;;;;;;;3.02;75.60;95749.03;5076368;28;20447;-86
2021/03/17 08:26:09;;;;;;;22.20;16.30;;;;;;;3.13;75.26;95741.47;5077601;28;20077;-86
2021/03/17 08:28:49;;;;;;;19.08;15.00;;;;;;;2.97;72.83;95712.00;5088872;28;20031;-85
2021/03/17 08:31:37;;;;;;;21.95;14.88;;;;;;;3.26;73.48;95744.22;5080288;28;20059;-86
2021/03/17 08:34:20;;;;;;;25.73;16.60;;;;;;;3.39;73.61;95753.81;5075926;28;20016;-86
2021/03/17 08:36:49;;;;;;;23.55;15.80;;;;;;;3.53;71.55;95754.63;5076000;28;20039;-85
2021/03/17 08:39:37;;;;;;;24.48;16.45;;;;;;;3.56;71.29;95746.44;5060605;28;20025;-86
2021/03/17 08:42:08;;;;;;;23.25;16.17;;;;;;;3.35;71.08;95701.38;5059046;28;20035;-85
2021/03/17 08:44:36;;;;;;;24.20;16.67;;;;;;;3.75;70.51;95757.47;5070709;28;20028;-85
2021/03/17 08:47:26;;;;;;;25.70;17.10;;;;;;;3.64;71.02;95742.41;5075432;28;20055;-85
2021/03/17 08:49:52;;;;;;;23.17;16.10;;;;;;;3.48;69.80;95718.28;5081652;28;20033;-85
2021/03/17 08:52:23;;;;;;;25.55;17.75;;;;;;;3.49;72.60;95711.00;5075342;28;20113;-85
2021/03/17 08:54:59;;;;;;;21.05;16.05;;;;;;;3.59;69.37;95712.63;5075502;28;20165;-85
2021/03/17 08:57:49;;;;;;;24.65;16.85;;;;;;;3.78;69.73;95733.19;5077780;28;20028;-85
2021/03/17 09:00:42;;;;;;;24.83;16.90;;;;;;;3.98;68.70;95759.09;5084576;28;20416;-85
2021/03/17 09:03:09;;;;;;;25.35;16.60;;;;;;;3.46;70.31;95717.94;5094104;28;20123;-85
2021/03/17 09:05:35;;;;;;;22.70;16.50;;;;;;;3.44;69.90;95701.53;5074917;28;20129;-85
2021/03/17 09:08:06;;;;;;;24.17;17.45;;;;;;;3.37;71.11;95713.22;5082861;28;20421;-85
2021/03/17 09:10:45;;;;;;;25.92;17.60;;;;;;;3.60;72.04;95754.41;5077556;28;20115;-85
2021/03/17 09:13:13;;;;;;;23.63;16.85;;;;;;;3.57;72.59;95766.78;5066015;28;20024;-86
2021/03/17 09:15:44;;;;;;;25.27;17.33;;;;;;;2.96;72.51;95703.19;5075272;28;20033;-85
2021/03/17 09:18:10;;;;;;;23.60;17.20;;;;;;;3.56;72.88;95775.22;5075105;28;20033;-86
2021/03/17 09:20:46;;;;;;;25.83;17.55;;;;;;;3.26;73.57;95741.53;5075381;28;20320;-86
2021/03/17 09:23:35;;;;;;;25.80;17.95;;;;;;;3.62;73.01;95779.69;5075316;28;20324;-85
2021/03/17 09:26:01;;;;;;;27.83;19.38;;;;;;;3.23;73.98;95718.97;5074545;28;20020;-85
2021/03/17 09:28:32;;;;;;;25.58;17.98;;;;;;;3.50;73.71;95756.22;5090750;28;20081;-86
2021/03/17 09:31:11;;;;;;;27.25;19.17;;;;;;;3.67;74.20;95786.44;5076462;28;20024;-85
2021/03/17 09:33:39;;;;;;;31.05;20.00;;;;;;;3.76;72.28;95780.47;5075114;28;20024;-85
2021/03/17 09:36:14;;;;;;;26.23;18.25;;;;;;;3.61;73.30;95753.22;5075452;28;20021;-85
2021/03/17 09:38:51;;;;;;;26.70;18.70;;;;;;;3.66;73.28;95752.72;5075481;28;20320;-85
2021/03/17 09:41:31;;;;;;;22.70;16.08;;;;;;;3.67;69.57;95751.53;5069445;28;20024;-85
2021/03/17 09:44:01;;;;;;;27.73;19.00;;;;;;;3.96;72.22;95786.41;5076168;28;20040;-85
2021/03/17 09:46:31;;;;;;;28.80;18.08;;;;;;;3.97;72.58;95787.91;5092366;28;20028;-85
2021/03/17 09:49:17;;;;;;;27.13;19.50;;;;;;;3.84;73.06;95785.22;5075281;28;20063;-85
2021/03/17 09:51:48;;;;;;;27.05;19.33;;;;;;;3.86;72.96;95785.53;5092957;28;20125;-85
2021/03/17 09:54:17;;;;;;;27.75;18.85;;;;;;;3.72;71.49;95761.00;5092015;28;20024;-84
2021/03/17 09:56:46;;;;;;;25.55;17.95;;;;;;;4.03;71.45;95798.88;5086979;28;20407;-85
2021/03/17 09:59:21;;;;;;;30.58;20.80;;;;;;;3.97;74.50;95798.66;5079635;28;20027;-85
2021/03/17 10:02:00;;;;;;;29.60;19.23;;;;;;;3.32;74.64;95735.22;5077965;28;20070;-86
2021/03/17 10:04:35;;;;;;;23.48;17.70;;;;;;;3.61;73.97;95801.56;5083153;28;20740;-86
2021/03/17 10:07:05;;;;;;;25.00;17.92;;;;;;;3.48;74.11;95780.06;5093744;28;20066;-86
2021/03/17 10:09:33;;;;;;;21.73;16.55;;;;;;;3.37;73.90;95772.28;5081615;28;20487;-86
2021/03/17 10:12:20;;;;;;;21.38;15.02;;;;;;;3.27;73.80;95757.22;5078429;28;20066;-86
2021/03/17 10:14:52;;;;;;;27.00;16.65;;;;;;;3.00;75.30;95741.41;5074900;28;20032;-86
2021/03/17 10:17:19;;;;;;;21.88;15.98;;;;;;;2.69;75.63;95724.94;5078657;28;20020;-86
2021/03/17 10:19:50;;;;;;;24.35;15.98;;;;;;;2.90;75.86;95761.22;5078135;28;20028;-86
2021/03/17 10:22:21;;;;;;;22.35;16.50;;;;;;;3.35;77.37;95808.78;5078365;28;20115;-85
2021/03/17 10:24:50;;;;;;;22.20;16.58;;;;;;;2.73;77.44;95738.28;5078273;28;20408;-86
2021/03/17 10:27:20;;;;;;;23.48;16.95;;;;;;;3.10;77.06;95825.53;5081062;28;20021;-86
2021/03/17 10:29:48;;;;;;;22.00;15.83;;;;;;;3.14;76.19;95821.56;5098918;28;20440;-86
2021/03/17 10:32:16;;;;;;;24.55;16.27;;;;;;;2.72;76.86;95772.38;5093758;28;20028;-86
2021/03/17 10:34:41;;;;;;;25.35;17.48;;;;;;;2.62;76.84;95762.66;5078925;28;20021;-85
2021/03/17 10:37:15;;;;;;;23.48;17.20;;;;;;;3.14;78.04;95818.88;5078248;28;20328;-86
2021/03/17 10:39:42;;;;;;;23.90;15.88;;;;;;;2.77;79.05;95745.06;5078214;28;20024;-86
2021/03/17 10:42:25;;;;;;;22.48;15.63;;;;;;;3.32;77.88;95810.38;5077768;28;20032;-86
2021/03/17 10:45:09;;;;;;;22.15;15.93;;;;;;;3.52;78.59;95806.81;5078198;28;20473;-88
2021/03/17 10:47:36;;;;;;;28.08;18.60;;;;;;;3.16;77.21;95767.47;5084192;28;20036;-86
2021/03/17 10:50:08;;;;;;;26.10;18.63;;;;;;;3.15;77.21;95731.84;5082375;28;20025;-86
2021/03/17 10:52:42;;;;;;;28.88;19.83;;;;;;;3.21;77.26;95739.38;5089208;28;20044;-86
2021/03/17 10:55:19;;;;;;;37.00;23.17;;;;;;;3.13;77.70;95720.00;5098468;28;20023;-85
2021/03/17 10:57:46;;;;;;;32.17;21.00;;;;;;;3.77;73.66;95795.38;5078802;28;20031;-86
2021/03/17 11:00:33;;;;;;;29.23;20.23;;;;;;;3.85;73.69;95788.66;5091079;28;20040;-87
2021/03/17 11:02:58;;;;;;;24.38;17.00;;;;;;;3.87;70.20;95778.22;5079760;28;20378;-86
2021/03/17 11:05:26;;;;;;;24.77;17.15;;;;;;;4.06;69.05;95776.53;5077838;28;20032;-87
2021/03/17 11:08:00;;;;;;;23.65;14.75;;;;;;;5.84;90.67;95792.34;5077610;28;20036;-84
2021/03/17 11:10:57;;;;;;;21.85;13.48;;;;;;;6.39;78.83;95797.28;5085915;28;20019;-85
2021/03/17 11:13:28;;;;;;;21.83;15.55;;;;;;;6.19;69.25;95751.81;5077235;28;20013;-84
2021/03/17 11:15:56;;;;;;;21.42;15.25;;;;;;;6.82;62.14;95796.44;5077698;28;20048;-85
2021/03/17 11:18:30;;;;;;;21.25;15.50;;;;;;;5.54;62.65;95734.50;5077720;28;20052;-85
2021/03/17 11:21:05;;;;;;;21.17;15.65;;;;;;;5.27;63.57;95743.13;5078810;28;20032;-85
2021/03/17 11:23:39;;;;;;;21.55;15.70;;;;;;;5.47;63.59;95783.97;5076072;28;20035;-85
2021/03/17 11:26:08;;;;;;;20.85;16.02;;;;;;;5.32;62.56;95785.66;5078353;28;20074;-83
2021/03/17 11:28:40;;;;;;;20.40;14.70;;;;;;;5.14;62.79;95740.47;5092455;28;20064;-85
2021/03/17 11:31:13;;;;;;;18.90;14.20;;;;;;;5.26;60.71;95771.25;5088531;28;20028;-83
2021/03/17 11:33:39;;;;;;;21.83;15.93;;;;;;;5.07;62.36;95708.44;5085676;28;20032;-85
2021/03/17 11:36:07;;;;;;;19.60;13.93;;;;;;;5.62;60.73;95775.41;5066105;28;20477;-84
2021/03/17 11:38:33;;;;;;;18.42;13.80;;;;;;;5.43;61.33;95742.19;5079810;28;20035;-84
2021/03/17 11:40:59;;;;;;;17.58;13.57;;;;;;;5.34;59.30;95728.69;5089135;28;20039;-84
2021/03/17 11:43:30;;;;;;;20.83;14.43;;;;;;;5.84;61.65;95783.50;5081942;28;20024;-85